KSYI/SYI METAR and TAF weather

Enter ICAO airport designator
Station Type Date Time Source
KSYI METAR 2020/09/26 10:55 UTC NOAA

KSYI 261055Z AUTO 00000KT 1/4SM FG OVC002 17/17 A3003 RMK A01


Station Type Date Time Source
KSYI Decoded METAR 2020/09/26 10:55 UTC NOAA

Station name not available
Sep 26, 2020 - 06:55 AM EDT / 2020.09.26 1055 UTC
Wind: Calm:0
Visibility: 1/4 mile(s):0
Sky conditions: overcast
Weather: fog
Temperature: 62 F (17 C)
Dew Point: 62 F (17 C)
Relative Humidity: 100%
Pressure (altimeter): 30.03 in. Hg (1016 hPa)
ob: KSYI 261055Z AUTO 00000KT 1/4SM FG OVC002 17/17 A3003 RMK A01
cycle: 11

Station Type Date Time Source
KSYI TAF UTC NOAA

Error!

Example: see airport list